Time;durP1;ratioP1;P1;durP2;ratioP2;P2;SDS_P1;SDS_P2;PMS_P1;PMS_P2;Temp;Humidity;BMP_temperature;BMP_pressure;BME280_temperature;BME280_humidity;BME280_pressure;Samples;Min_cycle;Max_cycle;Signal;HPM_P1;HPM_P2
2022/10/23 00:01:34;;;;;;;14.90;11.73;;;11.40;99.90;;;;;;5064041;28;20044;-53
2022/10/23 00:04:06;;;;;;;15.55;11.00;;;11.40;99.90;;;;;;5066182;28;20486;-53
2022/10/23 00:06:33;;;;;;;18.40;11.27;;;11.30;99.90;;;;;;5064999;28;20041;-53
2022/10/23 00:08:59;;;;;;;17.88;11.95;;;11.40;99.90;;;;;;5063776;28;20044;-51
2022/10/23 00:11:27;;;;;;;18.92;13.00;;;11.30;99.90;;;;;;5061852;28;20097;-53
2022/10/23 00:13:54;;;;;;;13.82;11.23;;;11.30;99.90;;;;;;5054112;28;20047;-53
2022/10/23 00:16:20;;;;;;;17.13;12.75;;;11.30;99.90;;;;;;5055725;28;20506;-54
2022/10/23 00:18:45;;;;;;;16.15;11.90;;;11.30;99.90;;;;;;5055689;28;20045;-55
2022/10/23 00:21:14;;;;;;;19.40;12.00;;;11.30;99.90;;;;;;5056215;28;20080;-56
2022/10/23 00:23:40;;;;;;;16.63;11.88;;;11.30;99.90;;;;;;5057846;28;20502;-53
2022/10/23 00:26:07;;;;;;;16.35;13.20;;;11.20;99.90;;;;;;5058024;28;20084;-57
2022/10/23 00:28:33;;;;;;;19.10;12.57;;;11.30;99.90;;;;;;5056909;28;20401;-54
2022/10/23 00:31:03;;;;;;;16.60;11.55;;;11.30;99.90;;;;;;5058458;28;20472;-53
2022/10/23 00:33:29;;;;;;;16.17;12.18;;;11.10;99.90;;;;;;5058187;28;20048;-52
2022/10/23 00:35:55;;;;;;;17.35;12.43;;;11.10;99.90;;;;;;5061272;28;20525;-56
2022/10/23 00:38:20;;;;;;;16.42;11.63;;;11.10;99.90;;;;;;5060595;28;20131;-54
2022/10/23 00:40:46;;;;;;;15.25;12.23;;;11.10;99.90;;;;;;5058017;28;20036;-54
2022/10/23 00:43:21;;;;;;;17.77;12.63;;;11.10;99.90;;;;;;5057772;28;20047;-55
2022/10/23 00:45:47;;;;;;;15.23;12.73;;;11.10;99.90;;;;;;5052834;28;20053;-51
2022/10/23 00:48:13;;;;;;;18.58;13.63;;;11.10;99.90;;;;;;5057238;28;20049;-50
2022/10/23 00:50:40;;;;;;;14.05;12.32;;;11.00;99.90;;;;;;5063162;28;20056;-50
2022/10/23 00:53:08;;;;;;;21.40;14.43;;;11.00;99.90;;;;;;5039361;28;20433;-49
2022/10/23 00:55:37;;;;;;;21.30;13.90;;;11.00;99.90;;;;;;5058381;28;20060;-52
2022/10/23 00:58:03;;;;;;;15.80;12.73;;;11.00;99.90;;;;;;5056486;28;20033;-49
2022/10/23 01:00:49;;;;;;;20.83;13.98;;;11.10;99.90;;;;;;5056679;28;20372;-50
2022/10/23 01:03:16;;;;;;;16.30;13.55;;;11.10;99.90;;;;;;5057572;28;20077;-53
2022/10/23 01:06:13;;;;;;;18.00;14.52;;;11.00;99.90;;;;;;5054594;28;20059;-51
2022/10/23 01:09:00;;;;;;;16.35;13.77;;;11.00;99.90;;;;;;5060930;28;20045;-49
2022/10/23 01:11:37;;;;;;;16.23;13.45;;;11.00;99.90;;;;;;5057332;28;20036;-50
2022/10/23 01:14:21;;;;;;;16.50;12.57;;;11.00;99.90;;;;;;5054375;28;20043;-50
2022/10/23 01:17:08;;;;;;;20.38;14.32;;;10.90;99.90;;;;;;5053594;28;20077;-54
2022/10/23 01:19:42;;;;;;;18.13;13.60;;;10.90;99.90;;;;;;5058491;28;21827;-54
2022/10/23 01:22:36;;;;;;;15.75;14.02;;;11.00;99.90;;;;;;5059916;28;20385;-51
2022/10/23 01:25:41;;;;;;;18.48;14.57;;;10.90;99.90;;;;;;5053007;28;20041;-52
2022/10/23 01:28:12;;;;;;;18.70;13.20;;;10.80;99.90;;;;;;5054270;28;20048;-51
2022/10/23 01:30:42;;;;;;;23.88;15.05;;;10.80;99.90;;;;;;5055867;28;20048;-51
2022/10/23 01:33:18;;;;;;;22.35;14.98;;;10.90;99.90;;;;;;5058161;28;20104;-53
2022/10/23 01:36:04;;;;;;;18.10;15.82;;;10.80;99.90;;;;;;5051679;28;21434;-55
2022/10/23 01:38:53;;;;;;;19.00;14.23;;;10.80;99.90;;;;;;5054701;28;20105;-52
2022/10/23 01:41:39;;;;;;;17.60;14.70;;;10.70;99.90;;;;;;5051327;28;20055;-50
2022/10/23 01:44:13;;;;;;;16.27;14.45;;;10.70;99.90;;;;;;5057043;28;20102;-53
2022/10/23 01:46:40;;;;;;;18.65;14.98;;;10.60;99.90;;;;;;5060512;28;20040;-50
2022/10/23 01:49:09;;;;;;;18.67;14.57;;;10.60;99.90;;;;;;5056481;28;20040;-51
2022/10/23 01:51:38;;;;;;;17.42;13.40;;;10.60;99.90;;;;;;5058096;28;20338;-54
2022/10/23 01:54:09;;;;;;;23.33;15.70;;;10.60;99.90;;;;;;5057108;28;20125;-54
2022/10/23 01:56:38;;;;;;;22.92;15.38;;;10.60;99.90;;;;;;5056680;28;20056;-52
2022/10/23 01:59:15;;;;;;;19.48;15.40;;;10.50;99.90;;;;;;5058868;28;20098;-49
2022/10/23 02:01:44;;;;;;;17.00;13.82;;;10.60;99.90;;;;;;5054599;28;20395;-51
2022/10/23 02:04:15;;;;;;;21.30;15.07;;;10.40;99.90;;;;;;5054510;28;20142;-48
2022/10/23 02:06:41;;;;;;;17.52;13.77;;;10.40;99.90;;;;;;5059499;28;20044;-49
2022/10/23 02:09:06;;;;;;;16.42;13.85;;;10.40;99.90;;;;;;5059633;28;20407;-52
2022/10/23 02:11:39;;;;;;;20.52;15.25;;;10.50;99.90;;;;;;5057650;28;20044;-54
2022/10/23 02:14:14;;;;;;;19.50;15.10;;;10.40;99.90;;;;;;5061864;28;20083;-55
2022/10/23 02:16:50;;;;;;;16.70;13.75;;;10.40;99.90;;;;;;5056762;28;20509;-51
2022/10/23 02:19:36;;;;;;;22.23;16.23;;;10.40;99.90;;;;;;5061785;28;20602;-52
2022/10/23 02:22:25;;;;;;;20.67;15.25;;;10.40;99.90;;;;;;5060386;28;20048;-51
2022/10/23 02:25:02;;;;;;;24.25;16.60;;;10.40;99.90;;;;;;5058209;28;20079;-51
2022/10/23 02:27:39;;;;;;;18.15;15.25;;;10.30;99.90;;;;;;5056375;28;20522;-52
2022/10/23 02:30:08;;;;;;;19.65;15.65;;;10.30;99.90;;;;;;5058812;28;21065;-53
2022/10/23 02:32:35;;;;;;;19.88;15.77;;;10.30;99.90;;;;;;5054946;28;20072;-53
2022/10/23 02:35:01;;;;;;;19.27;15.30;;;10.40;99.90;;;;;;5056870;28;20448;-54
2022/10/23 02:37:27;;;;;;;18.73;14.15;;;10.40;99.90;;;;;;5060002;28;20063;-56
2022/10/23 02:39:53;;;;;;;18.50;15.20;;;10.30;99.90;;;;;;5060271;28;20402;-53
2022/10/23 02:42:30;;;;;;;23.25;17.33;;;10.30;99.90;;;;;;5064476;28;20567;-51
2022/10/23 02:45:34;;;;;;;20.05;15.93;;;10.30;99.90;;;;;;5060436;28;20056;-54
2022/10/23 02:48:10;;;;;;;20.67;14.93;;;10.30;99.90;;;;;;5054080;28;20043;-53
2022/10/23 02:51:04;;;;;;;21.52;15.73;;;10.20;99.90;;;;;;5058960;28;20276;-55
2022/10/23 02:53:54;;;;;;;21.17;15.75;;;10.20;99.90;;;;;;5060917;28;20560;-55
2022/10/23 02:56:42;;;;;;;20.75;14.40;;;10.30;99.90;;;;;;5055471;28;21450;-55
2022/10/23 02:59:24;;;;;;;17.90;15.15;;;10.20;99.90;;;;;;5061269;28;20037;-53
2022/10/23 03:02:05;;;;;;;22.88;15.32;;;10.30;99.90;;;;;;5060159;28;20067;-52
2022/10/23 03:04:32;;;;;;;19.73;14.60;;;10.20;99.90;;;;;;5065128;28;20053;-49
2022/10/23 03:06:58;;;;;;;23.08;16.33;;;10.20;99.90;;;;;;5062792;28;20056;-53
2022/10/23 03:09:25;;;;;;;25.92;17.48;;;10.20;99.90;;;;;;5058964;28;20486;-51
2022/10/23 03:11:51;;;;;;;19.00;14.30;;;10.10;99.90;;;;;;5058930;28;20179;-54
2022/10/23 03:14:16;;;;;;;18.42;15.35;;;10.20;99.90;;;;;;5053985;28;20546;-52
2022/10/23 03:16:42;;;;;;;19.27;14.38;;;10.20;99.90;;;;;;5059592;28;20059;-51
2022/10/23 03:19:08;;;;;;;22.55;16.73;;;10.20;99.90;;;;;;5060728;28;20040;-52
2022/10/23 03:21:33;;;;;;;21.25;15.82;;;10.10;99.90;;;;;;5057315;28;20495;-53
2022/10/23 03:23:59;;;;;;;19.52;14.68;;;10.10;99.90;;;;;;5059226;28;20052;-54
2022/10/23 03:26:24;;;;;;;19.40;15.57;;;10.10;99.90;;;;;;5043103;28;20444;-49
2022/10/23 03:28:50;;;;;;;26.30;16.23;;;10.00;99.90;;;;;;5059011;28;20037;-54
2022/10/23 03:31:16;;;;;;;18.02;15.90;;;10.00;99.90;;;;;;5057221;28;20398;-54
2022/10/23 03:33:41;;;;;;;20.83;14.75;;;10.10;99.90;;;;;;5052037;28;20495;-52
2022/10/23 03:36:07;;;;;;;20.58;16.30;;;10.10;99.90;;;;;;5056967;28;20056;-52
2022/10/23 03:38:33;;;;;;;21.10;14.40;;;10.10;99.90;;;;;;5071326;28;20039;-53
2022/10/23 03:40:58;;;;;;;22.75;16.58;;;10.00;99.90;;;;;;5057515;28;20044;-50
2022/10/23 03:43:24;;;;;;;20.52;15.10;;;10.00;99.90;;;;;;5061957;28;20127;-55
2022/10/23 03:45:50;;;;;;;21.85;15.63;;;10.00;99.90;;;;;;5060438;28;20041;-54
2022/10/23 03:48:16;;;;;;;27.90;18.42;;;10.00;99.90;;;;;;5058734;28;20052;-56
2022/10/23 03:50:42;;;;;;;24.40;17.08;;;10.00;99.90;;;;;;5058227;28;20057;-52
2022/10/23 03:53:08;;;;;;;29.20;17.67;;;10.00;99.90;;;;;;5052820;28;20044;-54
2022/10/23 03:55:33;;;;;;;21.67;16.83;;;10.20;99.90;;;;;;5062917;28;20055;-56
2022/10/23 03:57:59;;;;;;;25.48;18.02;;;10.20;99.90;;;;;;5060176;28;20111;-52
2022/10/23 04:00:24;;;;;;;23.63;17.85;;;10.20;99.90;;;;;;5057325;28;20647;-55
2022/10/23 04:02:50;;;;;;;21.83;17.00;;;10.20;99.90;;;;;;5062461;28;20060;-53
2022/10/23 04:05:15;;;;;;;23.10;16.77;;;10.20;99.90;;;;;;5057789;28;20406;-53
2022/10/23 04:07:41;;;;;;;26.35;17.27;;;10.20;99.90;;;;;;5058269;28;20056;-53
2022/10/23 04:10:07;;;;;;;20.95;16.45;;;10.20;99.90;;;;;;5056068;28;20033;-55
2022/10/23 04:12:33;;;;;;;25.58;17.15;;;10.10;99.90;;;;;;5059175;28;20111;-51
2022/10/23 04:14:59;;;;;;;24.40;16.88;;;10.20;99.90;;;;;;5053704;28;20045;-51
2022/10/23 04:17:25;;;;;;;23.70;17.00;;;10.20;99.90;;;;;;5053528;28;20388;-52
2022/10/23 04:19:50;;;;;;;25.15;17.98;;;10.10;99.90;;;;;;5054486;28;20041;-54
2022/10/23 04:22:16;;;;;;;32.25;18.83;;;10.10;99.90;;;;;;5055093;28;20044;-50
2022/10/23 04:24:45;;;;;;;24.55;18.40;;;10.10;99.90;;;;;;5056035;28;20032;-54
2022/10/23 04:27:12;;;;;;;24.55;17.60;;;10.10;99.90;;;;;;5054779;28;20078;-53
2022/10/23 04:29:37;;;;;;;21.15;16.98;;;10.10;99.90;;;;;;5051780;28;20044;-56
2022/10/23 04:32:03;;;;;;;19.42;16.33;;;10.10;99.90;;;;;;5053644;28;20599;-52
2022/10/23 04:34:29;;;;;;;26.10;18.52;;;10.00;99.90;;;;;;5053513;28;20041;-53
2022/10/23 04:36:54;;;;;;;27.15;17.88;;;10.00;99.90;;;;;;5058697;28;20044;-53
2022/10/23 04:39:20;;;;;;;23.73;17.58;;;10.00;99.90;;;;;;5056914;28;20089;-53
2022/10/23 04:41:46;;;;;;;28.67;17.33;;;10.00;99.90;;;;;;5054281;28;20041;-55
2022/10/23 04:44:11;;;;;;;25.60;17.77;;;9.90;99.90;;;;;;5054814;28;20064;-52
2022/10/23 04:46:37;;;;;;;27.33;19.02;;;9.90;99.90;;;;;;5053794;28;20098;-54
2022/10/23 04:49:02;;;;;;;27.88;18.88;;;9.90;99.90;;;;;;5053203;28;20453;-52
2022/10/23 04:51:28;;;;;;;25.63;17.25;;;10.00;99.90;;;;;;5051425;28;20059;-52
2022/10/23 04:53:54;;;;;;;25.00;18.77;;;10.00;99.90;;;;;;5057098;28;20474;-52
2022/10/23 04:56:19;;;;;;;29.25;20.30;;;9.90;99.90;;;;;;5056317;28;20051;-51
2022/10/23 04:58:45;;;;;;;23.20;17.08;;;10.00;99.90;;;;;;5055705;28;20063;-55
2022/10/23 05:01:10;;;;;;;25.02;18.73;;;10.00;99.90;;;;;;5053432;28;20033;-53
2022/10/23 05:03:37;;;;;;;27.73;18.95;;;10.00;99.90;;;;;;5053942;28;20509;-52
2022/10/23 05:06:04;;;;;;;25.85;19.70;;;9.90;99.90;;;;;;5056734;28;20442;-53
2022/10/23 05:08:30;;;;;;;24.80;17.40;;;10.00;99.90;;;;;;5053709;28;20069;-51
2022/10/23 05:10:55;;;;;;;25.23;19.10;;;10.00;99.90;;;;;;5057725;28;20041;-54
2022/10/23 05:13:22;;;;;;;34.80;19.15;;;9.90;99.90;;;;;;5059336;28;20069;-54
2022/10/23 05:15:49;;;;;;;28.42;17.35;;;9.90;99.90;;;;;;5052634;28;20052;-53
2022/10/23 05:18:31;;;;;;;24.75;19.08;;;10.00;99.90;;;;;;5059874;28;20127;-52
2022/10/23 05:21:06;;;;;;;31.73;21.25;;;9.90;99.90;;;;;;5054443;28;20052;-52
2022/10/23 05:23:35;;;;;;;23.75;18.65;;;9.90;99.90;;;;;;5054781;28;20135;-49
2022/10/23 05:26:02;;;;;;;26.15;18.50;;;10.00;99.90;;;;;;5059369;28;20047;-49
2022/10/23 05:28:28;;;;;;;23.70;18.48;;;10.00;99.90;;;;;;5057954;28;20040;-52
2022/10/23 05:30:54;;;;;;;25.33;17.45;;;10.00;99.90;;;;;;5054889;28;20036;-50
2022/10/23 05:33:20;;;;;;;26.83;19.55;;;9.90;99.90;;;;;;5056425;28;20475;-52
2022/10/23 05:35:45;;;;;;;28.73;19.40;;;9.90;99.90;;;;;;5054503;28;20083;-50
2022/10/23 05:38:13;;;;;;;28.65;19.42;;;9.80;99.90;;;;;;5057147;28;20143;-53
2022/10/23 05:40:38;;;;;;;27.67;20.27;;;9.90;99.90;;;;;;5063470;28;20094;-52
2022/10/23 05:43:04;;;;;;;29.60;19.48;;;9.90;99.90;;;;;;5060428;28;20032;-52
2022/10/23 05:45:30;;;;;;;29.08;19.85;;;10.00;99.90;;;;;;5064922;28;20033;-51
2022/10/23 05:47:55;;;;;;;29.17;20.23;;;9.90;99.90;;;;;;5075418;28;20139;-51
2022/10/23 05:50:21;;;;;;;28.27;19.77;;;10.00;99.90;;;;;;5062030;28;20634;-50
2022/10/23 05:52:48;;;;;;;26.92;19.98;;;10.00;99.90;;;;;;5060730;28;20402;-53
2022/10/23 05:55:14;;;;;;;26.75;18.60;;;9.90;99.90;;;;;;5059778;28;20028;-54
2022/10/23 05:57:40;;;;;;;28.33;19.23;;;10.00;99.90;;;;;;5062119;28;20044;-53
2022/10/23 06:00:06;;;;;;;25.95;18.23;;;10.00;99.90;;;;;;5063084;28;20036;-52
2022/10/23 06:02:32;;;;;;;26.67;19.67;;;10.00;99.90;;;;;;5058709;28;20041;-57
2022/10/23 06:04:58;;;;;;;30.08;19.35;;;10.00;99.90;;;;;;5060001;28;20040;-50
2022/10/23 06:07:25;;;;;;;28.42;20.67;;;10.10;99.90;;;;;;5063304;28;20093;-54
2022/10/23 06:09:51;;;;;;;25.27;18.60;;;10.00;99.90;;;;;;5059449;28;20099;-53
2022/10/23 06:12:19;;;;;;;28.85;19.52;;;10.00;99.90;;;;;;5059988;28;20056;-50
2022/10/23 06:14:45;;;;;;;32.20;19.52;;;10.10;99.90;;;;;;5058244;28;20105;-54
2022/10/23 06:17:10;;;;;;;28.15;19.15;;;10.10;99.90;;;;;;5060710;28;20044;-52
2022/10/23 06:19:36;;;;;;;24.95;18.73;;;10.10;99.90;;;;;;5061334;28;20041;-51
2022/10/23 06:22:03;;;;;;;29.38;19.50;;;10.10;99.90;;;;;;5059678;28;20052;-52
2022/10/23 06:24:29;;;;;;;27.08;19.38;;;10.10;99.90;;;;;;5058286;28;20068;-51
2022/10/23 06:26:54;;;;;;;26.88;18.48;;;10.10;99.90;;;;;;5060706;28;20091;-52
2022/10/23 06:29:20;;;;;;;27.38;19.52;;;10.20;99.90;;;;;;5061297;28;20114;-54
2022/10/23 06:31:46;;;;;;;21.15;17.20;;;10.20;99.90;;;;;;5059317;28;20542;-51
2022/10/23 06:34:12;;;;;;;25.73;18.17;;;10.10;99.90;;;;;;5060609;28;20048;-54
2022/10/23 06:36:37;;;;;;;27.92;19.23;;;10.10;99.90;;;;;;5059624;28;20084;-53
2022/10/23 06:39:04;;;;;;;27.38;18.90;;;10.20;99.90;;;;;;5059544;28;20044;-50
2022/10/23 06:41:29;;;;;;;25.52;18.17;;;10.20;99.90;;;;;;5058943;28;20119;-52
2022/10/23 06:43:55;;;;;;;24.90;18.35;;;10.20;99.90;;;;;;5059711;28;20045;-54
2022/10/23 06:46:21;;;;;;;33.25;18.63;;;10.20;99.90;;;;;;5056711;28;20044;-55
2022/10/23 06:48:46;;;;;;;25.88;18.70;;;10.30;99.90;;;;;;5074445;28;20044;-52
2022/10/23 06:51:14;;;;;;;24.60;17.38;;;10.20;99.90;;;;;;5064221;28;20074;-54
2022/10/23 06:53:40;;;;;;;28.08;19.27;;;10.30;99.90;;;;;;5057579;28;20123;-52
2022/10/23 06:56:07;;;;;;;26.55;18.65;;;10.30;99.90;;;;;;5055587;28;20494;-55
2022/10/23 06:58:34;;;;;;;23.00;17.90;;;10.40;99.90;;;;;;5063369;28;20037;-54
2022/10/23 07:01:01;;;;;;;26.55;18.10;;;10.40;99.90;;;;;;5062274;28;20298;-53
2022/10/23 07:03:27;;;;;;;24.05;16.35;;;10.50;99.90;;;;;;5062940;28;20175;-54
2022/10/23 07:05:53;;;;;;;20.80;15.85;;;10.50;99.90;;;;;;5060769;28;20039;-53
2022/10/23 07:08:18;;;;;;;20.77;16.73;;;10.50;99.90;;;;;;5062536;28;20048;-54
2022/10/23 07:10:44;;;;;;;27.63;17.45;;;10.60;99.90;;;;;;5061001;28;20145;-54
2022/10/23 07:13:10;;;;;;;23.88;17.30;;;10.60;99.90;;;;;;5058512;28;20033;-54
2022/10/23 07:15:37;;;;;;;22.42;16.50;;;10.60;99.90;;;;;;5062236;28;20468;-54
2022/10/23 07:18:04;;;;;;;19.67;15.48;;;10.60;99.90;;;;;;5060281;28;20439;-53
2022/10/23 07:20:29;;;;;;;24.38;16.25;;;10.70;99.90;;;;;;5060165;28;20032;-51
2022/10/23 07:22:55;;;;;;;21.55;15.43;;;10.80;99.90;;;;;;5061606;28;20093;-53
2022/10/23 07:25:23;;;;;;;22.90;17.02;;;10.80;99.90;;;;;;5060460;28;20032;-54
2022/10/23 07:27:49;;;;;;;20.07;15.40;;;10.80;99.90;;;;;;5059305;28;20040;-54
2022/10/23 07:30:15;;;;;;;27.05;15.70;;;10.80;99.90;;;;;;5061061;28;20695;-52
2022/10/23 07:32:41;;;;;;;21.48;15.57;;;11.00;99.90;;;;;;5061844;28;20051;-54
2022/10/23 07:35:07;;;;;;;18.45;15.45;;;10.90;99.90;;;;;;5059806;28;20063;-54
2022/10/23 07:37:33;;;;;;;22.67;15.75;;;11.00;99.90;;;;;;5061647;28;20086;-52
2022/10/23 07:39:58;;;;;;;20.55;15.05;;;10.90;99.90;;;;;;5059866;28;20090;-54
2022/10/23 07:42:24;;;;;;;22.13;15.10;;;11.00;99.90;;;;;;5058818;28;20445;-53
2022/10/23 07:44:49;;;;;;;21.83;14.48;;;11.10;99.90;;;;;;5058547;28;20048;-56
2022/10/23 07:47:15;;;;;;;20.98;14.88;;;11.10;99.90;;;;;;5060879;28;20036;-53
2022/10/23 07:49:41;;;;;;;22.17;14.93;;;11.10;99.90;;;;;;5056369;28;20044;-55
2022/10/23 07:52:06;;;;;;;26.88;16.23;;;11.30;99.90;;;;;;5056496;28;20053;-53
2022/10/23 07:54:32;;;;;;;20.20;15.13;;;11.30;99.90;;;;;;5055435;28;20056;-52
2022/10/23 07:56:58;;;;;;;22.48;16.48;;;11.40;99.90;;;;;;5042280;28;20067;-55
2022/10/23 07:59:24;;;;;;;19.35;15.82;;;11.40;99.90;;;;;;5062550;28;20508;-54
2022/10/23 08:01:51;;;;;;;21.90;15.75;;;11.50;99.90;;;;;;5054877;28;20036;-53
2022/10/23 08:04:18;;;;;;;20.47;14.63;;;11.50;99.90;;;;;;5059332;28;20579;-54
2022/10/23 08:06:43;;;;;;;19.90;14.27;;;11.50;99.90;;;;;;5055356;28;20584;-53
2022/10/23 08:09:09;;;;;;;18.90;13.77;;;11.70;99.90;;;;;;5058494;28;20040;-54
2022/10/23 08:11:35;;;;;;;16.02;13.00;;;11.70;99.90;;;;;;5057711;28;20065;-56
2022/10/23 08:14:07;;;;;;;16.50;13.05;;;11.70;99.90;;;;;;5053814;28;20090;-54
2022/10/23 08:16:34;;;;;;;22.67;13.48;;;11.70;99.90;;;;;;5059478;28;20033;-53
2022/10/23 08:19:01;;;;;;;15.02;12.52;;;11.80;99.90;;;;;;5058757;28;20139;-50
2022/10/23 08:21:26;;;;;;;19.20;12.82;;;11.90;99.90;;;;;;5057821;28;20041;-52
2022/10/23 08:23:56;;;;;;;16.70;12.52;;;12.00;99.90;;;;;;5054961;28;20036;-50
2022/10/23 08:26:23;;;;;;;13.70;11.93;;;12.00;99.90;;;;;;5060864;28;20041;-51
2022/10/23 08:28:49;;;;;;;17.02;12.23;;;12.20;99.90;;;;;;5057056;28;20059;-54
2022/10/23 08:31:17;;;;;;;20.02;12.18;;;12.30;99.90;;;;;;5055274;28;20243;-56
2022/10/23 08:33:43;;;;;;;17.45;12.23;;;12.40;99.90;;;;;;5063074;28;20040;-55
2022/10/23 08:36:26;;;;;;;18.48;11.68;;;12.50;99.90;;;;;;5054689;28;20422;-56
2022/10/23 08:38:54;;;;;;;17.40;10.77;;;12.80;99.90;;;;;;5055127;28;20056;-56
2022/10/23 08:41:46;;;;;;;13.60;10.52;;;12.80;99.90;;;;;;5054163;28;20048;-53
2022/10/23 08:44:25;;;;;;;14.02;9.23;;;12.90;99.90;;;;;;5053078;28;20471;-54
2022/10/23 08:47:12;;;;;;;13.95;9.90;;;13.10;99.90;;;;;;5057866;28;20045;-48
2022/10/23 08:49:52;;;;;;;14.20;10.07;;;13.20;99.90;;;;;;5057154;28;20048;-54
2022/10/23 08:52:46;;;;;;;15.50;9.57;;;13.30;99.90;;;;;;5057450;28;20056;-52
2022/10/23 08:55:34;;;;;;;10.13;9.05;;;13.40;99.90;;;;;;5059753;28;20056;-54
2022/10/23 08:58:05;;;;;;;13.25;8.77;;;13.50;99.90;;;;;;5058048;28;20047;-54
2022/10/23 09:00:31;;;;;;;12.77;8.65;;;13.60;99.90;;;;;;5057701;28;20607;-55
2022/10/23 09:03:01;;;;;;;11.45;8.05;;;13.80;99.90;;;;;;5061330;28;20032;-52
2022/10/23 09:05:54;;;;;;;11.98;8.32;;;13.80;99.90;;;;;;5057640;28;20033;-53
2022/10/23 09:08:25;;;;;;;9.45;8.25;;;13.80;99.90;;;;;;5059178;28;20130;-53
2022/10/23 09:11:17;;;;;;;13.63;7.88;;;13.80;99.90;;;;;;5057696;28;20099;-54
2022/10/23 09:14:08;;;;;;;9.05;7.72;;;13.90;99.90;;;;;;5061939;28;20130;-56
2022/10/23 09:17:16;;;;;;;9.73;7.40;;;14.00;99.90;;;;;;5058212;28;20529;-55
2022/10/23 09:19:44;;;;;;;14.68;7.63;;;14.00;99.90;;;;;;5058047;28;20045;-55
2022/10/23 09:22:11;;;;;;;11.85;6.78;;;14.00;99.90;;;;;;5058266;28;20041;-55
2022/10/23 09:24:36;;;;;;;8.43;6.90;;;14.00;99.90;;;;;;5060866;28;20393;-56
2022/10/23 09:27:02;;;;;;;10.07;7.00;;;14.00;99.90;;;;;;5065325;28;20114;-54
2022/10/23 09:29:31;;;;;;;9.50;6.20;;;14.10;99.90;;;;;;5062302;28;20063;-54
2022/10/23 09:32:04;;;;;;;12.02;6.30;;;14.10;99.90;;;;;;5061886;28;20763;-57
2022/10/23 09:34:31;;;;;;;10.65;5.80;;;14.20;99.90;;;;;;5067178;28;20078;-55
2022/10/23 09:37:00;;;;;;;9.55;5.90;;;14.30;99.90;;;;;;5057394;28;20055;-55
2022/10/23 09:39:35;;;;;;;10.45;6.10;;;14.30;99.90;;;;;;5059958;28;20103;-54
2022/10/23 09:42:22;;;;;;;8.93;5.97;;;14.30;99.90;;;;;;5056027;28;20521;-55
2022/10/23 09:44:51;;;;;;;7.07;5.13;;;14.30;99.90;;;;;;5058011;28;20051;-54
2022/10/23 09:47:23;;;;;;;7.78;5.45;;;14.40;99.90;;;;;;5057242;28;20040;-54
2022/10/23 09:49:53;;;;;;;8.10;5.53;;;14.40;99.90;;;;;;5059071;28;20141;-55
2022/10/23 09:52:34;;;;;;;8.98;5.18;;;14.60;99.90;;;;;;5054573;28;20127;-55
2022/10/23 09:55:03;;;;;;;9.52;5.63;;;14.60;99.90;;;;;;5055096;28;20109;-54
2022/10/23 09:57:41;;;;;;;8.88;5.13;;;14.60;99.90;;;;;;5020235;28;20040;-54
2022/10/23 10:00:13;;;;;;;5.85;4.80;;;14.70;99.90;;;;;;5056409;28;20086;-54
2022/10/23 10:02:41;;;;;;;8.15;4.88;;;14.70;99.90;;;;;;5056288;28;20045;-54
2022/10/23 10:05:52;;;;;;;8.07;4.75;;;14.70;99.90;;;;;;5058367;28;20499;-53
2022/10/23 10:08:31;;;;;;;6.22;4.57;;;14.70;99.90;;;;;;5025578;28;20075;-55
2022/10/23 10:11:23;;;;;;;10.02;5.35;;;14.80;99.90;;;;;;5026279;28;20079;-53
2022/10/23 10:14:20;;;;;;;9.57;4.50;;;14.90;99.90;;;;;;5031836;28;20534;-54
2022/10/23 10:16:46;;;;;;;;;;;15.00;99.90;;;;;;5016874;28;20083;-52
2022/10/23 10:19:46;;;;;;;7.68;4.38;;;15.00;99.90;;;;;;5025551;28;19968;-54
2022/10/23 10:22:39;;;;;;;6.97;3.95;;;15.10;99.90;;;;;;5027710;28;20081;-51
2022/10/23 10:25:20;;;;;;;8.07;3.90;;;15.10;99.90;;;;;;5027478;28;20041;-54
2022/10/23 10:28:14;;;;;;;7.43;4.13;;;15.20;99.90;;;;;;5046409;28;20498;-54
2022/10/23 10:31:17;;;;;;;7.70;4.78;;;15.20;99.90;;;;;;5015408;28;20501;-54
2022/10/23 10:34:13;;;;;;;11.05;4.55;;;15.30;99.90;;;;;;5027625;28;20526;-53
2022/10/23 10:37:04;;;;;;;6.05;3.55;;;15.40;99.90;;;;;;5029976;28;20084;-54
2022/10/23 10:40:01;;;;;;;6.68;4.30;;;15.40;99.90;;;;;;5051745;28;20045;-53
2022/10/23 10:43:05;;;;;;;8.43;3.90;;;15.50;99.90;;;;;;5052415;28;20041;-56
2022/10/23 10:45:38;;;;;;;8.90;4.00;;;15.50;99.90;;;;;;5078285;28;20083;-53
2022/10/23 10:48:30;;;;;;;4.40;3.47;;;15.50;99.90;;;;;;5082883;28;20202;-54
2022/10/23 10:51:04;;;;;;;6.97;4.13;;;15.60;99.90;;;;;;5079456;28;20060;-55
2022/10/23 10:54:08;;;;;;;6.38;3.60;;;15.50;99.90;;;;;;5077627;28;20045;-54
2022/10/23 10:56:37;;;;;;;9.25;3.40;;;15.50;99.90;;;;;;5080717;28;20051;-53
2022/10/23 10:59:13;;;;;;;4.70;3.50;;;15.50;99.90;;;;;;5080107;28;20465;-53
2022/10/23 11:02:00;;;;;;;8.90;3.40;;;15.60;99.90;;;;;;5080153;28;20682;-55
2022/10/23 11:04:39;;;;;;;6.28;3.38;;;15.50;99.90;;;;;;5075808;28;20526;-55
2022/10/23 11:07:10;;;;;;;10.35;3.97;;;15.40;99.90;;;;;;5075245;28;20066;-56
2022/10/23 11:09:37;;;;;;;6.28;3.60;;;15.40;99.90;;;;;;5073514;28;20071;-53
2022/10/23 11:12:03;;;;;;;6.78;3.58;;;15.40;99.90;;;;;;5099180;28;20086;-55
2022/10/23 11:14:32;;;;;;;8.35;3.80;;;15.40;99.90;;;;;;5092099;28;20068;-52
2022/10/23 11:17:23;;;;;;;11.07;4.00;;;15.40;99.90;;;;;;5090455;28;20047;-54
2022/10/23 11:20:03;;;;;;;7.07;3.50;;;15.40;99.90;;;;;;5069196;28;20049;-54
2022/10/23 11:22:51;;;;;;;7.75;3.30;;;15.30;99.90;;;;;;5062208;28;20051;-53
2022/10/23 11:25:52;;;;;;;7.22;3.88;;;15.30;99.90;;;;;;5069871;28;20183;-53
2022/10/23 11:28:18;;;;;;;9.20;3.40;;;15.30;99.90;;;;;;5076013;28;21828;-55
2022/10/23 11:30:54;;;;;;;7.65;3.60;;;15.30;99.90;;;;;;5073335;28;20070;-51
2022/10/23 11:33:48;;;;;;;7.13;3.70;;;15.40;99.90;;;;;;5077917;28;20044;-55
2022/10/23 11:36:19;;;;;;;8.90;3.80;;;15.40;99.90;;;;;;5063571;28;20056;-55
2022/10/23 11:38:49;;;;;;;9.85;4.20;;;15.50;99.90;;;;;;5072677;28;20438;-54
2022/10/23 11:41:25;;;;;;;7.30;4.05;;;15.60;99.90;;;;;;5070894;28;20083;-54
2022/10/23 11:44:02;;;;;;;12.40;3.70;;;15.60;99.90;;;;;;5073225;28;20449;-53
2022/10/23 11:46:37;;;;;;;;;;;15.60;99.90;;;;;;5076680;28;20036;-52
2022/10/23 11:49:17;;;;;;;10.43;4.43;;;15.60;99.90;;;;;;5071017;28;20003;-54
2022/10/23 11:51:43;;;;;;;8.57;4.07;;;15.60;99.90;;;;;;5081798;28;20044;-55
2022/10/23 11:54:24;;;;;;;9.27;3.85;;;15.60;99.90;;;;;;5082528;28;20116;-52
2022/10/23 11:57:11;;;;;;;5.63;3.88;;;15.70;99.90;;;;;;5070128;28;20040;-54
2022/10/23 11:59:49;;;;;;;5.32;3.63;;;15.70;99.90;;;;;;5084120;28;20096;-54
2022/10/23 12:02:30;;;;;;;11.13;3.50;;;15.80;99.90;;;;;;5089411;28;20037;-53
2022/10/23 12:05:00;;;;;;;6.95;3.65;;;15.80;99.90;;;;;;5092514;28;20032;-53
2022/10/23 12:07:33;;;;;;;9.15;3.53;;;15.80;99.90;;;;;;5076803;28;20516;-53
2022/10/23 12:10:20;;;;;;;9.35;3.67;;;15.80;99.90;;;;;;5089826;28;20044;-53
2022/10/23 12:13:00;;;;;;;6.15;3.47;;;15.80;99.90;;;;;;5085872;28;20056;-52
2022/10/23 12:15:27;;;;;;;6.78;3.40;;;15.80;99.90;;;;;;5069962;28;20041;-52
2022/10/23 12:18:16;;;;;;;9.65;3.22;;;15.90;99.90;;;;;;5086510;28;20036;-53
2022/10/23 12:21:02;;;;;;;7.32;3.30;;;15.90;99.90;;;;;;5082413;28;20504;-53
2022/10/23 12:23:48;;;;;;;5.18;3.20;;;16.00;99.90;;;;;;5079447;28;20036;-54
2022/10/23 12:26:26;;;;;;;7.80;3.17;;;16.00;99.90;;;;;;5072055;28;20036;-53
2022/10/23 12:28:57;;;;;;;;;;;16.10;99.90;;;;;;5075540;28;20053;-54
2022/10/23 12:31:57;;;;;;;9.15;3.40;;;16.10;99.90;;;;;;5079164;28;19921;-53
2022/10/23 12:34:45;;;;;;;7.22;3.40;;;16.10;99.90;;;;;;5075556;28;20040;-54
2022/10/23 12:37:29;;;;;;;5.78;3.00;;;;;;;;;;5072630;28;20040;-54
2022/10/23 12:39:55;;;;;;;4.60;2.85;;;16.30;99.90;;;;;;5071385;28;20072;-54
2022/10/23 12:42:28;;;;;;;5.82;3.00;;;16.30;99.90;;;;;;5087082;28;20511;-54
2022/10/23 12:45:19;;;;;;;7.00;3.22;;;16.30;99.90;;;;;;5071598;28;20041;-55
2022/10/23 12:47:46;;;;;;;5.97;3.15;;;16.20;99.90;;;;;;5062942;28;20044;-54
2022/10/23 12:50:29;;;;;;;7.38;3.10;;;16.20;99.90;;;;;;5072602;28;20040;-54
2022/10/23 12:53:02;;;;;;;7.63;3.55;;;16.10;99.90;;;;;;5079271;28;20094;-54
2022/10/23 12:55:57;;;;;;;6.13;2.72;;;16.10;99.90;;;;;;5071357;28;20056;-54
2022/10/23 12:58:29;;;;;;;8.38;2.80;;;16.10;99.90;;;;;;5083468;28;20067;-54
2022/10/23 13:01:01;;;;;;;5.85;2.95;;;16.10;99.90;;;;;;5070644;28;20075;-53